sensor_id;sensor_type;location;lat;lon;timestamp;pressure;altitude;pressure_sealevel;temperature;humidity
59443;BME280;45247;47.466;19.004;2023-04-23T00:01:25;99691.53;;;8.51;100.00
59443;BME280;45247;47.466;19.004;2023-04-23T00:03:55;99694.41;;;8.46;100.00
59443;BME280;45247;47.466;19.004;2023-04-23T00:06:25;99689.31;;;8.43;100.00
59443;BME280;45247;47.466;19.004;2023-04-23T00:08:53;99693.50;;;8.30;100.00
59443;BME280;45247;47.466;19.004;2023-04-23T00:11:22;99688.00;;;8.19;100.00
59443;BME280;45247;47.466;19.004;2023-04-23T00:13:50;99689.94;;;8.15;100.00
59443;BME280;45247;47.466;19.004;2023-04-23T00:16:21;99691.13;;;8.10;100.00
59443;BME280;45247;47.466;19.004;2023-04-23T00:18:50;99691.25;;;8.07;100.00
59443;BME280;45247;47.466;19.004;2023-04-23T00:21:18;99693.28;;;8.01;100.00
59443;BME280;45247;47.466;19.004;2023-04-23T00:23:46;99689.88;;;7.99;100.00
59443;BME280;45247;47.466;19.004;2023-04-23T00:26:14;99688.03;;;8.01;100.00
59443;BME280;45247;47.466;19.004;2023-04-23T00:28:44;99684.47;;;8.02;100.00
59443;BME280;45247;47.466;19.004;2023-04-23T00:31:12;99692.44;;;8.01;100.00
59443;BME280;45247;47.466;19.004;2023-04-23T00:33:41;99683.47;;;8.05;100.00
59443;BME280;45247;47.466;19.004;2023-04-23T00:36:09;99680.06;;;8.03;100.00
59443;BME280;45247;47.466;19.004;2023-04-23T00:38:37;99680.75;;;8.07;100.00
59443;BME280;45247;47.466;19.004;2023-04-23T00:41:06;99684.03;;;7.94;100.00
59443;BME280;45247;47.466;19.004;2023-04-23T00:43:34;99681.72;;;7.88;100.00
59443;BME280;45247;47.466;19.004;2023-04-23T00:46:04;99681.88;;;7.85;100.00
59443;BME280;45247;47.466;19.004;2023-04-23T00:48:33;99679.41;;;7.82;100.00
59443;BME280;45247;47.466;19.004;2023-04-23T00:51:04;99682.50;;;7.73;100.00
59443;BME280;45247;47.466;19.004;2023-04-23T00:53:33;99673.88;;;7.71;100.00
59443;BME280;45247;47.466;19.004;2023-04-23T00:56:03;99676.69;;;7.66;100.00
59443;BME280;45247;47.466;19.004;2023-04-23T00:58:32;99673.53;;;7.60;100.00
59443;BME280;45247;47.466;19.004;2023-04-23T01:01:01;99678.94;;;7.57;100.00
59443;BME280;45247;47.466;19.004;2023-04-23T01:03:30;99675.81;;;7.50;100.00
59443;BME280;45247;47.466;19.004;2023-04-23T01:05:59;99674.06;;;7.49;100.00
59443;BME280;45247;47.466;19.004;2023-04-23T01:08:30;99676.03;;;7.45;100.00
59443;BME280;45247;47.466;19.004;2023-04-23T01:10:59;99679.50;;;7.46;100.00
59443;BME280;45247;47.466;19.004;2023-04-23T01:13:29;99677.13;;;7.41;100.00
59443;BME280;45247;47.466;19.004;2023-04-23T01:15:57;99669.53;;;7.35;100.00
59443;BME280;45247;47.466;19.004;2023-04-23T01:18:26;99673.31;;;7.30;100.00
59443;BME280;45247;47.466;19.004;2023-04-23T01:20:55;99675.59;;;7.18;100.00
59443;BME280;45247;47.466;19.004;2023-04-23T01:23:24;99668.81;;;7.14;100.00
59443;BME280;45247;47.466;19.004;2023-04-23T01:25:53;99673.53;;;7.08;100.00
59443;BME280;45247;47.466;19.004;2023-04-23T01:28:22;99670.28;;;7.02;100.00
59443;BME280;45247;47.466;19.004;2023-04-23T01:30:50;99676.75;;;6.95;100.00
59443;BME280;45247;47.466;19.004;2023-04-23T01:33:19;99661.34;;;6.88;100.00
59443;BME280;45247;47.466;19.004;2023-04-23T01:35:47;99668.25;;;6.90;100.00
59443;BME280;45247;47.466;19.004;2023-04-23T01:38:18;99669.94;;;6.91;100.00
59443;BME280;45247;47.466;19.004;2023-04-23T01:40:49;99667.44;;;6.88;100.00
59443;BME280;45247;47.466;19.004;2023-04-23T01:43:17;99664.59;;;6.93;100.00
59443;BME280;45247;47.466;19.004;2023-04-23T01:45:45;99664.31;;;6.99;100.00
59443;BME280;45247;47.466;19.004;2023-04-23T01:48:13;99664.25;;;7.00;100.00
59443;BME280;45247;47.466;19.004;2023-04-23T01:50:42;99661.84;;;6.96;100.00
59443;BME280;45247;47.466;19.004;2023-04-23T01:53:10;99666.31;;;6.94;100.00
59443;BME280;45247;47.466;19.004;2023-04-23T01:55:39;99660.38;;;6.90;100.00
59443;BME280;45247;47.466;19.004;2023-04-23T01:58:09;99662.19;;;6.88;100.00
59443;BME280;45247;47.466;19.004;2023-04-23T02:00:37;99660.50;;;6.87;100.00
59443;BME280;45247;47.466;19.004;2023-04-23T02:03:05;99663.22;;;6.86;100.00
59443;BME280;45247;47.466;19.004;2023-04-23T02:05:34;99664.91;;;6.87;100.00
59443;BME280;45247;47.466;19.004;2023-04-23T02:08:02;99663.50;;;6.80;100.00
59443;BME280;45247;47.466;19.004;2023-04-23T02:10:31;99655.75;;;6.76;100.00
59443;BME280;45247;47.466;19.004;2023-04-23T02:13:00;99653.75;;;6.64;100.00
59443;BME280;45247;47.466;19.004;2023-04-23T02:15:30;99659.25;;;6.58;100.00
59443;BME280;45247;47.466;19.004;2023-04-23T02:17:58;99657.50;;;6.59;100.00
59443;BME280;45247;47.466;19.004;2023-04-23T02:20:26;99659.00;;;6.64;100.00
59443;BME280;45247;47.466;19.004;2023-04-23T02:22:54;99649.63;;;6.59;100.00
59443;BME280;45247;47.466;19.004;2023-04-23T02:25:23;99654.25;;;6.53;100.00
59443;BME280;45247;47.466;19.004;2023-04-23T02:27:51;99649.00;;;6.53;100.00
59443;BME280;45247;47.466;19.004;2023-04-23T02:30:19;99647.94;;;6.58;100.00
59443;BME280;45247;47.466;19.004;2023-04-23T02:32:49;99656.59;;;6.60;100.00
59443;BME280;45247;47.466;19.004;2023-04-23T02:35:18;99643.47;;;6.60;100.00
59443;BME280;45247;47.466;19.004;2023-04-23T02:37:46;99646.03;;;6.61;100.00
59443;BME280;45247;47.466;19.004;2023-04-23T02:40:14;99645.22;;;6.59;100.00
59443;BME280;45247;47.466;19.004;2023-04-23T02:42:43;99654.88;;;6.59;100.00
59443;BME280;45247;47.466;19.004;2023-04-23T02:45:11;99655.16;;;6.52;100.00
59443;BME280;45247;47.466;19.004;2023-04-23T02:47:39;99652.69;;;6.49;100.00
59443;BME280;45247;47.466;19.004;2023-04-23T02:50:09;99639.66;;;6.48;100.00
59443;BME280;45247;47.466;19.004;2023-04-23T02:52:37;99643.13;;;6.48;100.00
59443;BME280;45247;47.466;19.004;2023-04-23T02:55:06;99643.38;;;6.42;100.00
59443;BME280;45247;47.466;19.004;2023-04-23T02:57:36;99643.38;;;6.42;100.00
59443;BME280;45247;47.466;19.004;2023-04-23T03:00:06;99642.72;;;6.39;100.00
59443;BME280;45247;47.466;19.004;2023-04-23T03:02:34;99636.75;;;6.35;100.00
59443;BME280;45247;47.466;19.004;2023-04-23T03:05:03;99640.22;;;6.36;100.00
59443;BME280;45247;47.466;19.004;2023-04-23T03:07:34;99643.81;;;6.33;100.00
59443;BME280;45247;47.466;19.004;2023-04-23T03:10:02;99643.97;;;6.30;100.00
59443;BME280;45247;47.466;19.004;2023-04-23T03:12:31;99642.25;;;6.29;100.00
59443;BME280;45247;47.466;19.004;2023-04-23T03:14:59;99634.59;;;6.24;100.00
59443;BME280;45247;47.466;19.004;2023-04-23T03:17:27;99635.75;;;6.19;100.00
59443;BME280;45247;47.466;19.004;2023-04-23T03:19:55;99631.28;;;6.21;100.00
59443;BME280;45247;47.466;19.004;2023-04-23T03:22:23;99634.81;;;6.20;100.00
59443;BME280;45247;47.466;19.004;2023-04-23T03:24:53;99638.44;;;6.17;100.00
59443;BME280;45247;47.466;19.004;2023-04-23T03:27:21;99631.34;;;6.19;100.00
59443;BME280;45247;47.466;19.004;2023-04-23T03:29:49;99636.72;;;6.16;100.00
59443;BME280;45247;47.466;19.004;2023-04-23T03:32:17;99632.50;;;6.14;100.00
59443;BME280;45247;47.466;19.004;2023-04-23T03:34:45;99635.13;;;6.14;100.00
59443;BME280;45247;47.466;19.004;2023-04-23T03:37:13;99643.75;;;6.16;100.00
59443;BME280;45247;47.466;19.004;2023-04-23T03:39:41;99639.56;;;6.12;100.00
59443;BME280;45247;47.466;19.004;2023-04-23T03:42:10;99645.66;;;6.12;100.00
59443;BME280;45247;47.466;19.004;2023-04-23T03:44:39;99648.47;;;6.08;100.00
59443;BME280;45247;47.466;19.004;2023-04-23T03:47:07;99648.63;;;6.05;100.00
59443;BME280;45247;47.466;19.004;2023-04-23T03:49:35;99639.97;;;6.02;100.00
59443;BME280;45247;47.466;19.004;2023-04-23T03:52:03;99647.84;;;6.02;100.00
59443;BME280;45247;47.466;19.004;2023-04-23T03:54:31;99648.63;;;6.05;100.00
59443;BME280;45247;47.466;19.004;2023-04-23T03:56:59;99649.28;;;6.10;100.00
59443;BME280;45247;47.466;19.004;2023-04-23T03:59:29;99656.84;;;6.16;100.00
59443;BME280;45247;47.466;19.004;2023-04-23T04:01:57;99656.59;;;6.22;100.00
59443;BME280;45247;47.466;19.004;2023-04-23T04:04:25;99657.09;;;6.30;100.00
59443;BME280;45247;47.466;19.004;2023-04-23T04:06:54;99654.69;;;6.99;100.00
59443;BME280;45247;47.466;19.004;2023-04-23T04:09:22;99658.97;;;7.54;100.00
59443;BME280;45247;47.466;19.004;2023-04-23T04:11:51;99654.91;;;8.15;100.00
59443;BME280;45247;47.466;19.004;2023-04-23T04:14:20;99656.78;;;8.62;100.00
59443;BME280;45247;47.466;19.004;2023-04-23T04:16:50;99656.38;;;9.45;100.00
59443;BME280;45247;47.466;19.004;2023-04-23T04:19:19;99656.53;;;10.01;100.00
59443;BME280;45247;47.466;19.004;2023-04-23T04:21:47;99655.19;;;10.80;100.00
59443;BME280;45247;47.466;19.004;2023-04-23T04:24:15;99657.09;;;11.44;100.00
59443;BME280;45247;47.466;19.004;2023-04-23T04:26:44;99666.47;;;12.14;93.66
59443;BME280;45247;47.466;19.004;2023-04-23T04:29:13;99671.09;;;12.85;85.43
59443;BME280;45247;47.466;19.004;2023-04-23T04:31:41;99664.66;;;13.48;80.46
59443;BME280;45247;47.466;19.004;2023-04-23T04:34:11;99661.31;;;14.38;76.25
59443;BME280;45247;47.466;19.004;2023-04-23T04:36:40;99659.09;;;15.31;67.70
59443;BME280;45247;47.466;19.004;2023-04-23T04:39:09;99661.91;;;16.13;64.24
59443;BME280;45247;47.466;19.004;2023-04-23T04:41:39;99662.66;;;17.06;59.75
59443;BME280;45247;47.466;19.004;2023-04-23T04:44:08;99662.38;;;17.28;57.28
59443;BME280;45247;47.466;19.004;2023-04-23T04:46:36;99661.31;;;18.16;54.76
59443;BME280;45247;47.466;19.004;2023-04-23T04:49:06;99658.22;;;19.04;52.12
59443;BME280;45247;47.466;19.004;2023-04-23T04:51:37;99662.28;;;19.08;50.68
59443;BME280;45247;47.466;19.004;2023-04-23T04:54:06;99658.97;;;19.85;48.68
59443;BME280;45247;47.466;19.004;2023-04-23T04:56:35;99662.00;;;19.29;51.12
59443;BME280;45247;47.466;19.004;2023-04-23T04:59:03;99663.19;;;20.14;48.46
59443;BME280;45247;47.466;19.004;2023-04-23T05:01:32;99662.38;;;20.98;47.35
59443;BME280;45247;47.466;19.004;2023-04-23T05:04:00;99659.63;;;21.48;45.38
59443;BME280;45247;47.466;19.004;2023-04-23T05:06:29;99659.25;;;22.00;44.08
59443;BME280;45247;47.466;19.004;2023-04-23T05:08:59;99662.66;;;21.86;42.64
59443;BME280;45247;47.466;19.004;2023-04-23T05:11:27;99666.00;;;22.99;40.72
59443;BME280;45247;47.466;19.004;2023-04-23T05:13:56;99664.84;;;23.25;38.26
59443;BME280;45247;47.466;19.004;2023-04-23T05:16:24;99663.59;;;23.82;37.38
59443;BME280;45247;47.466;19.004;2023-04-23T05:18:52;99662.31;;;23.92;37.76
59443;BME280;45247;47.466;19.004;2023-04-23T05:21:20;99667.34;;;23.95;38.38
59443;BME280;45247;47.466;19.004;2023-04-23T05:23:49;99664.50;;;24.56;36.31
59443;BME280;45247;47.466;19.004;2023-04-23T05:26:18;99670.06;;;24.69;34.55
59443;BME280;45247;47.466;19.004;2023-04-23T05:28:46;99665.16;;;24.43;36.42
59443;BME280;45247;47.466;19.004;2023-04-23T05:31:14;99672.31;;;25.17;34.82
59443;BME280;45247;47.466;19.004;2023-04-23T05:33:42;99668.06;;;25.44;33.14
59443;BME280;45247;47.466;19.004;2023-04-23T05:36:16;99671.06;;;24.83;32.39
59443;BME280;45247;47.466;19.004;2023-04-23T05:38:46;99667.84;;;25.88;31.58
59443;BME280;45247;47.466;19.004;2023-04-23T05:41:14;99667.19;;;25.22;31.31
59443;BME280;45247;47.466;19.004;2023-04-23T05:43:44;99669.06;;;24.56;32.21
59443;BME280;45247;47.466;19.004;2023-04-23T05:46:12;99669.06;;;25.07;32.47
59443;BME280;45247;47.466;19.004;2023-04-23T05:48:40;99671.47;;;25.31;33.96
59443;BME280;45247;47.466;19.004;2023-04-23T05:51:08;99679.09;;;25.49;33.64
59443;BME280;45247;47.466;19.004;2023-04-23T05:53:36;99670.38;;;24.60;34.16
59443;BME280;45247;47.466;19.004;2023-04-23T05:56:04;99675.13;;;25.45;33.99
59443;BME280;45247;47.466;19.004;2023-04-23T05:58:33;99680.06;;;25.63;31.09
59443;BME280;45247;47.466;19.004;2023-04-23T06:01:02;99670.09;;;26.13;30.79
59443;BME280;45247;47.466;19.004;2023-04-23T06:03:30;99674.91;;;25.46;30.65
59443;BME280;45247;47.466;19.004;2023-04-23T06:05:59;99665.56;;;26.20;30.43
59443;BME280;45247;47.466;19.004;2023-04-23T06:08:27;99673.84;;;26.46;29.46
59443;BME280;45247;47.466;19.004;2023-04-23T06:10:55;99673.84;;;26.46;29.14
59443;BME280;45247;47.466;19.004;2023-04-23T06:13:23;99662.75;;;26.69;29.50
59443;BME280;45247;47.466;19.004;2023-04-23T06:15:53;99672.69;;;26.62;29.72
59443;BME280;45247;47.466;19.004;2023-04-23T06:18:23;99667.81;;;26.16;29.38
59443;BME280;45247;47.466;19.004;2023-04-23T06:20:51;99673.34;;;26.30;29.37
59443;BME280;45247;47.466;19.004;2023-04-23T06:23:19;99677.16;;;25.64;30.54
59443;BME280;45247;47.466;19.004;2023-04-23T06:25:47;99683.50;;;24.63;32.32
59443;BME280;45247;47.466;19.004;2023-04-23T06:28:15;99684.13;;;23.83;32.53
59443;BME280;45247;47.466;19.004;2023-04-23T06:30:43;99684.28;;;23.58;32.48
59443;BME280;45247;47.466;19.004;2023-04-23T06:33:12;99675.16;;;23.67;32.14
59443;BME280;45247;47.466;19.004;2023-04-23T06:35:41;99680.19;;;23.47;32.54
59443;BME280;45247;47.466;19.004;2023-04-23T06:38:09;99682.25;;;23.14;34.05
59443;BME280;45247;47.466;19.004;2023-04-23T06:40:38;99677.31;;;23.72;34.58
59443;BME280;45247;47.466;19.004;2023-04-23T06:43:06;99679.63;;;24.13;33.93
59443;BME280;45247;47.466;19.004;2023-04-23T06:45:35;99685.44;;;23.18;34.98
59443;BME280;45247;47.466;19.004;2023-04-23T06:48:03;99687.81;;;23.13;34.30
59443;BME280;45247;47.466;19.004;2023-04-23T06:50:31;99681.56;;;23.12;34.48
59443;BME280;45247;47.466;19.004;2023-04-23T06:53:01;99683.69;;;23.25;35.40
59443;BME280;45247;47.466;19.004;2023-04-23T06:55:31;99682.53;;;22.96;34.64
59443;BME280;45247;47.466;19.004;2023-04-23T06:57:59;99680.13;;;23.02;35.05
59443;BME280;45247;47.466;19.004;2023-04-23T07:00:27;99683.34;;;22.58;34.16
59443;BME280;45247;47.466;19.004;2023-04-23T07:02:55;99684.47;;;21.83;35.62
59443;BME280;45247;47.466;19.004;2023-04-23T07:05:24;99682.78;;;21.66;34.80
59443;BME280;45247;47.466;19.004;2023-04-23T07:07:52;99683.31;;;21.86;34.75
59443;BME280;45247;47.466;19.004;2023-04-23T07:10:21;99691.84;;;21.97;34.12
59443;BME280;45247;47.466;19.004;2023-04-23T07:12:49;99682.13;;;21.72;34.68
59443;BME280;45247;47.466;19.004;2023-04-23T07:15:17;99684.13;;;21.70;35.41
59443;BME280;45247;47.466;19.004;2023-04-23T07:17:45;99681.78;;;21.91;35.93
59443;BME280;45247;47.466;19.004;2023-04-23T07:20:14;99679.78;;;22.02;36.18
59443;BME280;45247;47.466;19.004;2023-04-23T07:22:42;99681.38;;;21.13;36.34
59443;BME280;45247;47.466;19.004;2023-04-23T07:25:10;99676.31;;;21.10;37.13
59443;BME280;45247;47.466;19.004;2023-04-23T07:27:39;99674.41;;;21.44;37.80
59443;BME280;45247;47.466;19.004;2023-04-23T07:30:08;99679.28;;;21.57;36.97
59443;BME280;45247;47.466;19.004;2023-04-23T07:32:36;99678.94;;;21.44;37.32
59443;BME280;45247;47.466;19.004;2023-04-23T07:35:05;99676.25;;;21.52;36.23
59443;BME280;45247;47.466;19.004;2023-04-23T07:37:35;99672.41;;;21.46;37.93
59443;BME280;45247;47.466;19.004;2023-04-23T07:40:04;99671.06;;;21.42;36.58
59443;BME280;45247;47.466;19.004;2023-04-23T07:42:33;99671.56;;;21.46;36.87
59443;BME280;45247;47.466;19.004;2023-04-23T07:45:04;99676.78;;;21.80;36.48
59443;BME280;45247;47.466;19.004;2023-04-23T07:47:32;99673.91;;;21.57;37.40
59443;BME280;45247;47.466;19.004;2023-04-23T07:50:00;99673.41;;;21.78;37.09
59443;BME280;45247;47.466;19.004;2023-04-23T07:52:28;99679.03;;;21.26;36.35
59443;BME280;45247;47.466;19.004;2023-04-23T07:54:56;99675.41;;;21.35;39.81
59443;BME280;45247;47.466;19.004;2023-04-23T07:57:25;99672.41;;;21.46;38.30
59443;BME280;45247;47.466;19.004;2023-04-23T07:59:53;99674.41;;;21.61;39.72
59443;BME280;45247;47.466;19.004;2023-04-23T08:02:22;99670.38;;;21.48;36.82
59443;BME280;45247;47.466;19.004;2023-04-23T08:04:52;99671.56;;;21.46;37.03
59443;BME280;45247;47.466;19.004;2023-04-23T08:07:21;99668.03;;;21.37;36.21
59443;BME280;45247;47.466;19.004;2023-04-23T08:09:50;99670.69;;;21.45;36.51
59443;BME280;45247;47.466;19.004;2023-04-23T08:12:18;99665.66;;;21.83;40.04
59443;BME280;45247;47.466;19.004;2023-04-23T08:14:46;99664.00;;;21.58;36.28
59443;BME280;45247;47.466;19.004;2023-04-23T08:17:16;99662.06;;;21.09;34.46
59443;BME280;45247;47.466;19.004;2023-04-23T08:19:46;99667.78;;;21.14;36.12
59443;BME280;45247;47.466;19.004;2023-04-23T08:22:14;99663.25;;;21.15;35.46
59443;BME280;45247;47.466;19.004;2023-04-23T08:24:43;99667.47;;;21.17;35.80
59443;BME280;45247;47.466;19.004;2023-04-23T08:27:11;99658.91;;;21.22;36.01
59443;BME280;45247;47.466;19.004;2023-04-23T08:29:40;99659.06;;;21.04;36.76
59443;BME280;45247;47.466;19.004;2023-04-23T08:32:08;99658.13;;;21.38;37.44
59443;BME280;45247;47.466;19.004;2023-04-23T08:34:37;99654.28;;;21.65;37.54
59443;BME280;45247;47.466;19.004;2023-04-23T08:37:06;99648.41;;;21.69;37.00
59443;BME280;45247;47.466;19.004;2023-04-23T08:39:49;99653.94;;;21.84;37.14
59443;BME280;45247;47.466;19.004;2023-04-23T08:42:21;99651.41;;;21.83;36.04
59443;BME280;45247;47.466;19.004;2023-04-23T08:44:53;99657.13;;;21.63;36.89
59443;BME280;45247;47.466;19.004;2023-04-23T08:47:26;99643.84;;;21.86;39.32
59443;BME280;45247;47.466;19.004;2023-04-23T08:49:58;99641.50;;;21.75;37.41
59443;BME280;45247;47.466;19.004;2023-04-23T08:52:32;99646.53;;;21.70;36.48
59443;BME280;45247;47.466;19.004;2023-04-23T08:55:01;99642.88;;;21.63;35.94
59443;BME280;45247;47.466;19.004;2023-04-23T08:57:32;99640.19;;;21.46;36.28
59443;BME280;45247;47.466;19.004;2023-04-23T09:00:02;99636.31;;;21.57;35.22
59443;BME280;45247;47.466;19.004;2023-04-23T09:02:33;99632.47;;;21.68;36.39
59443;BME280;45247;47.466;19.004;2023-04-23T09:05:02;99636.13;;;21.75;34.99
59443;BME280;45247;47.466;19.004;2023-04-23T09:07:32;99631.44;;;21.85;38.43
59443;BME280;45247;47.466;19.004;2023-04-23T09:10:01;99632.38;;;22.09;36.51
59443;BME280;45247;47.466;19.004;2023-04-23T09:12:29;99634.72;;;22.12;36.12
59443;BME280;45247;47.466;19.004;2023-04-23T09:14:57;99627.69;;;22.27;36.22
59443;BME280;45247;47.466;19.004;2023-04-23T09:17:27;99622.91;;;22.37;35.55
59443;BME280;45247;47.466;19.004;2023-04-23T09:19:56;99624.84;;;22.12;36.74
59443;BME280;45247;47.466;19.004;2023-04-23T09:22:39;99617.31;;;21.75;34.73
59443;BME280;45247;47.466;19.004;2023-04-23T09:25:13;99624.84;;;21.96;37.07
59443;BME280;45247;47.466;19.004;2023-04-23T09:27:45;99622.00;;;21.97;34.43
59443;BME280;45247;47.466;19.004;2023-04-23T09:30:13;99617.31;;;21.91;35.11
59443;BME280;45247;47.466;19.004;2023-04-23T09:32:45;99620.25;;;22.29;37.39
59443;BME280;45247;47.466;19.004;2023-04-23T09:35:15;99612.94;;;22.54;34.51
59443;BME280;45247;47.466;19.004;2023-04-23T09:37:48;99617.97;;;22.57;34.33
59443;BME280;45247;47.466;19.004;2023-04-23T09:40:19;99614.88;;;22.68;36.41
59443;BME280;45247;47.466;19.004;2023-04-23T09:42:48;99616.84;;;22.83;34.79
59443;BME280;45247;47.466;19.004;2023-04-23T09:45:18;99609.13;;;22.80;35.16
59443;BME280;45247;47.466;19.004;2023-04-23T09:47:51;99614.97;;;22.91;34.53
59443;BME280;45247;47.466;19.004;2023-04-23T09:50:19;99610.72;;;22.89;32.53
59443;BME280;45247;47.466;19.004;2023-04-23T09:52:59;99601.63;;;22.67;32.88
59443;BME280;45247;47.466;19.004;2023-04-23T09:55:29;99608.88;;;22.27;32.56
59443;BME280;45247;47.466;19.004;2023-04-23T09:58:02;99603.94;;;22.31;33.59
59443;BME280;45247;47.466;19.004;2023-04-23T10:00:35;99604.06;;;22.45;33.64
59443;BME280;45247;47.466;19.004;2023-04-23T10:03:05;99595.88;;;22.70;33.75
59443;BME280;45247;47.466;19.004;2023-04-23T10:05:37;99594.91;;;22.63;33.37
59443;BME280;45247;47.466;19.004;2023-04-23T10:08:29;99600.97;;;22.57;33.61
59443;BME280;45247;47.466;19.004;2023-04-23T10:10:58;99592.72;;;22.66;31.38
59443;BME280;45247;47.466;19.004;2023-04-23T10:13:45;99580.66;;;22.85;34.66
59443;BME280;45247;47.466;19.004;2023-04-23T10:16:14;99581.31;;;22.95;32.79
59443;BME280;45247;47.466;19.004;2023-04-23T10:18:50;99580.47;;;22.87;30.60
59443;BME280;45247;47.466;19.004;2023-04-23T10:21:24;99582.75;;;22.75;32.52
59443;BME280;45247;47.466;19.004;2023-04-23T10:24:08;99576.91;;;22.94;31.39
59443;BME280;45247;47.466;19.004;2023-04-23T10:26:40;99571.44;;;23.11;31.94
59443;BME280;45247;47.466;19.004;2023-04-23T10:29:12;99565.88;;;22.81;29.71
59443;BME280;45247;47.466;19.004;2023-04-23T10:31:41;99568.44;;;23.06;31.89
59443;BME280;45247;47.466;19.004;2023-04-23T10:34:09;99571.59;;;23.32;32.71
59443;BME280;45247;47.466;19.004;2023-04-23T10:36:38;99571.66;;;23.24;30.30
59443;BME280;45247;47.466;19.004;2023-04-23T10:39:07;99558.63;;;22.90;28.29
59443;BME280;45247;47.466;19.004;2023-04-23T10:41:37;99564.25;;;23.03;29.87
59443;BME280;45247;47.466;19.004;2023-04-23T10:44:10;99562.31;;;23.12;30.90
59443;BME280;45247;47.466;19.004;2023-04-23T10:46:49;99562.47;;;23.18;30.85
59443;BME280;45247;47.466;19.004;2023-04-23T10:49:18;99564.13;;;23.19;29.93
59443;BME280;45247;47.466;19.004;2023-04-23T10:51:52;99555.81;;;23.06;30.26
59443;BME280;45247;47.466;19.004;2023-04-23T10:54:49;99556.81;;;23.28;30.04
59443;BME280;45247;47.466;19.004;2023-04-23T10:57:23;99559.44;;;23.36;30.54
59443;BME280;45247;47.466;19.004;2023-04-23T10:59:52;99559.09;;;23.16;28.00
59443;BME280;45247;47.466;19.004;2023-04-23T11:02:22;99547.66;;;23.37;28.66
59443;BME280;45247;47.466;19.004;2023-04-23T11:04:54;99550.41;;;23.29;30.23
59443;BME280;45247;47.466;19.004;2023-04-23T11:07:25;99549.84;;;23.34;28.70
59443;BME280;45247;47.466;19.004;2023-04-23T11:10:00;99544.72;;;23.24;30.09
59443;BME280;45247;47.466;19.004;2023-04-23T11:12:39;99548.66;;;23.36;28.96
59443;BME280;45247;47.466;19.004;2023-04-23T11:15:11;99545.91;;;23.44;29.78
59443;BME280;45247;47.466;19.004;2023-04-23T11:17:58;99543.13;;;23.53;30.10
59443;BME280;45247;47.466;19.004;2023-04-23T11:20:30;99541.00;;;23.48;29.68
59443;BME280;45247;47.466;19.004;2023-04-23T11:22:58;99544.78;;;23.39;29.00
59443;BME280;45247;47.466;19.004;2023-04-23T11:25:28;99540.63;;;23.51;30.60
59443;BME280;45247;47.466;19.004;2023-04-23T11:27:56;99546.59;;;23.61;30.14
59443;BME280;45247;47.466;19.004;2023-04-23T11:30:26;99548.00;;;23.72;30.94
59443;BME280;45247;47.466;19.004;2023-04-23T11:32:56;99544.25;;;23.43;28.53
59443;BME280;45247;47.466;19.004;2023-04-23T11:35:26;99543.16;;;23.30;29.60
59443;BME280;45247;47.466;19.004;2023-04-23T11:37:56;99543.56;;;23.04;28.79
59443;BME280;45247;47.466;19.004;2023-04-23T11:40:24;99545.50;;;22.87;29.63
59443;BME280;45247;47.466;19.004;2023-04-23T11:42:56;99532.16;;;23.02;29.05
59443;BME280;45247;47.466;19.004;2023-04-23T11:45:26;99529.31;;;23.18;29.72
59443;BME280;45247;47.466;19.004;2023-04-23T11:47:55;99522.75;;;22.97;29.52
59443;BME280;45247;47.466;19.004;2023-04-23T11:50:26;99527.31;;;23.35;29.88
59443;BME280;45247;47.466;19.004;2023-04-23T11:52:55;99527.50;;;23.33;29.33
59443;BME280;45247;47.466;19.004;2023-04-23T11:55:24;99524.63;;;22.97;28.52
59443;BME280;45247;47.466;19.004;2023-04-23T11:57:52;99509.66;;;23.32;29.71
59443;BME280;45247;47.466;19.004;2023-04-23T12:00:24;99514.69;;;23.35;28.78
59443;BME280;45247;47.466;19.004;2023-04-23T12:02:54;99511.72;;;23.30;29.60
59443;BME280;45247;47.466;19.004;2023-04-23T12:05:27;99511.19;;;22.89;29.45
59443;BME280;45247;47.466;19.004;2023-04-23T12:08:06;99506.22;;;22.78;29.99
59443;BME280;45247;47.466;19.004;2023-04-23T12:10:41;99503.81;;;22.37;31.47
59443;BME280;45247;47.466;19.004;2023-04-23T12:13:14;99494.03;;;22.67;30.54
59443;BME280;45247;47.466;19.004;2023-04-23T12:15:49;99486.13;;;22.42;29.72
59443;BME280;45247;47.466;19.004;2023-04-23T12:18:18;99488.94;;;22.10;32.34
59443;BME280;45247;47.466;19.004;2023-04-23T12:20:46;99498.44;;;21.97;33.21
59443;BME280;45247;47.466;19.004;2023-04-23T12:23:14;99492.31;;;22.20;31.59
59443;BME280;45247;47.466;19.004;2023-04-23T12:25:42;99496.72;;;22.67;31.30
59443;BME280;45247;47.466;19.004;2023-04-23T12:28:11;99493.09;;;23.06;31.43
59443;BME280;45247;47.466;19.004;2023-04-23T12:30:42;99488.69;;;23.28;30.21
59443;BME280;45247;47.466;19.004;2023-04-23T12:33:12;99481.44;;;23.28;29.50
59443;BME280;45247;47.466;19.004;2023-04-23T12:35:42;99484.63;;;23.46;30.40
59443;BME280;45247;47.466;19.004;2023-04-23T12:38:21;99477.13;;;23.71;30.15
59443;BME280;45247;47.466;19.004;2023-04-23T12:40:50;99467.94;;;23.51;29.92
59443;BME280;45247;47.466;19.004;2023-04-23T12:43:18;99464.00;;;23.54;29.16
59443;BME280;45247;47.466;19.004;2023-04-23T12:45:47;99472.13;;;23.83;30.12
59443;BME280;45247;47.466;19.004;2023-04-23T12:48:16;99463.69;;;23.86;29.69
59443;BME280;45247;47.466;19.004;2023-04-23T12:50:45;99459.75;;;24.04;29.44
59443;BME280;45247;47.466;19.004;2023-04-23T12:53:14;99458.84;;;23.82;29.60
59443;BME280;45247;47.466;19.004;2023-04-23T12:55:44;99467.63;;;24.05;29.34
59443;BME280;45247;47.466;19.004;2023-04-23T12:58:14;99458.91;;;23.88;28.88
59443;BME280;45247;47.466;19.004;2023-04-23T13:00:46;99461.09;;;24.14;28.57
59443;BME280;45247;47.466;19.004;2023-04-23T13:03:20;99451.19;;;23.85;28.81